EA5BZ Cruz Roja ES current weather conditions

sailwx.info

Wind from 003 at 3 knots gusting 6

Air temperature 12.2° C
Dewpoint 10.3° C

Last reported at 2020-Feb-18 23:55 UTC.
Time now 2020-Feb-19 00:45 UTC

Location: N 38°17' W 000°40'.
View on Google Maps.

See reports from other nearby stations

  
Tides and Currents Weather Stations Pressure Air Temp Water Temp Dewpoint Dewpoint Depression Visibility Wind Speed Wind Dir Waves Ship Positions
date/time (UTC)wind fromknots sea level pressurealtimeterstation pressurevisibilityair tempwater tempwave heightnotes
2020-Feb-18 23:55 003 3 gusting 6 12.2
2020-Feb-18 23:50 002 3 gusting 6 12.2
2020-Feb-18 23:45 007 3 gusting 6 12.2
2020-Feb-18 23:40 12.2
2020-Feb-18 23:35 016 1 gusting 3 12.2
2020-Feb-18 23:30 034 2 gusting 4 12.2
2020-Feb-18 23:25 020 1 gusting 4 12.8
2020-Feb-18 23:20 038 1 gusting 4 12.2
2020-Feb-18 23:15 009 2 gusting 6 12.2
2020-Feb-18 23:10 021 1 gusting 6 12.2
2020-Feb-18 23:05 045 3 gusting 6 12.2
2020-Feb-18 23:00 046 3 gusting 6 12.8
2020-Feb-18 22:55 034 5 gusting 8 12.8
2020-Feb-18 22:50 040 5 gusting 8 12.8
2020-Feb-18 22:40 021 2 gusting 6 12.8
2020-Feb-18 22:35 032 2 gusting 6 12.8
2020-Feb-18 22:30 025 1 gusting 4 12.8
2020-Feb-18 22:25 037 2 gusting 6 12.8
2020-Feb-18 22:20 045 3 gusting 6 12.8
2020-Feb-18 22:15 046 3 gusting 7 12.8
2020-Feb-18 22:10 034 6 gusting 10 12.8
2020-Feb-18 22:05 034 6 gusting 9 12.8
2020-Feb-18 22:00 042 6 gusting 10 12.8
2020-Feb-18 21:55 036 6 gusting 11 12.8
2020-Feb-18 21:50 037 5 gusting 7 12.8
2020-Feb-18 21:45 037 5 gusting 8 12.8
2020-Feb-18 21:40 048 4 gusting 10 12.8
2020-Feb-18 21:35 043 4 gusting 8 12.8
2020-Feb-18 21:30 031 2 gusting 6 12.8
2020-Feb-18 21:25 042 3 gusting 8 12.8
2020-Feb-18 21:20 036 4 gusting 9 12.8
2020-Feb-18 21:10 036 3 gusting 9 12.8
2020-Feb-18 21:05 023 3 gusting 7 12.8
2020-Feb-18 21:00 039 4 gusting 7 12.8
2020-Feb-18 20:55 040 4 gusting 8 12.8
2020-Feb-18 20:50 038 4 gusting 8 12.8
2020-Feb-18 20:45 035 4 gusting 7 12.8
2020-Feb-18 20:41 043 3 gusting 6 12.8
2020-Feb-18 20:30 034 2 gusting 6 12.8
2020-Feb-18 20:20 032 1 gusting 6 12.8
2020-Feb-18 20:15 013 4 gusting 8 12.8
2020-Feb-18 20:10 007 3 gusting 7 12.8
2020-Feb-18 20:05 020 2 gusting 6 12.8
2020-Feb-18 20:00 021 3 gusting 7 12.2
2020-Feb-18 19:55 028 3 gusting 6 12.2
2020-Feb-18 19:50 029 3 gusting 8 12.2
2020-Feb-18 19:45 036 4 gusting 8 12.2
2020-Feb-18 19:40 019 3 gusting 7 12.2
2020-Feb-18 19:35 036 3 gusting 7 12.2
2020-Feb-18 19:30 014 4 gusting 7 12.2
2020-Feb-18 19:25 020 3 gusting 8 12.2
2020-Feb-18 19:20 034 4 gusting 7 12.2
2020-Feb-18 19:15 015 4 gusting 7 12.2
2020-Feb-18 19:10 035 3 gusting 6 12.2
2020-Feb-18 19:05 024 3 gusting 7 12.2
2020-Feb-18 19:00 052 6 gusting 12 12.2
2020-Feb-18 18:50 058 6 gusting 13 12.2
2020-Feb-18 18:45 053 7 gusting 12 12.2
2020-Feb-18 18:40 052 6 gusting 12 12.2
2020-Feb-18 18:35 050 5 gusting 7 12.2
2020-Feb-18 18:30 037 4 gusting 7 12.2
2020-Feb-18 18:25 040 3 gusting 6 12.2
2020-Feb-18 18:20 032 3 gusting 7 12.2
2020-Feb-18 18:15 039 3 gusting 7 12.2
2020-Feb-18 18:10 043 3 gusting 6 12.2
2020-Feb-18 18:05 041 3 gusting 7 12.2
2020-Feb-18 18:00 038 3 gusting 7 12.2
2020-Feb-18 17:55 044 3 gusting 8 12.2
2020-Feb-18 17:50 035 5 gusting 9 12.2
2020-Feb-18 17:45 032 3 gusting 7 12.2
2020-Feb-18 17:40 041 3 gusting 7 12.2
2020-Feb-18 17:35 039 5 gusting 9 12.2
2020-Feb-18 17:30 041 6 gusting 10 12.2
2020-Feb-18 17:25 040 6 gusting 11 12.2
2020-Feb-18 17:20 040 5 gusting 9 12.2
2020-Feb-18 17:15 040 6 gusting 9 12.2
2020-Feb-18 17:05 037 6 gusting 12 12.2
2020-Feb-18 17:00 041 6 gusting 12 12.2
2020-Feb-18 16:55 039 6 gusting 9 12.2
2020-Feb-18 16:50 046 6 gusting 11 12.2
2020-Feb-18 16:45 046 6 gusting 11 12.2
2020-Feb-18 16:40 055 7 gusting 14 12.2
2020-Feb-18 16:35 054 7 gusting 11 12.2
2020-Feb-18 16:30 056 6 gusting 11 12.2
2020-Feb-18 16:25 055 7 gusting 12 12.2
2020-Feb-18 16:20 053 7 gusting 13 12.2
2020-Feb-18 16:15 050 6 gusting 12 12.2
2020-Feb-18 16:10 055 6 gusting 12 12.2
2020-Feb-18 16:05 056 6 gusting 10 12.2
2020-Feb-18 16:00 065 6 gusting 12 12.2
2020-Feb-18 15:55 053 8 gusting 13 12.2
2020-Feb-18 15:50 061 6 gusting 11 12.2
2020-Feb-18 15:45 056 7 gusting 12 12.2
2020-Feb-18 15:40 058 7 gusting 13 12.2
2020-Feb-18 15:35 046 6 gusting 13 12.2
2020-Feb-18 15:30 045 7 gusting 12 12.8
2020-Feb-18 15:25 056 6 gusting 11 12.8
2020-Feb-18 15:15 056 7 gusting 12 12.8
2020-Feb-18 15:10 058 6 gusting 10 12.8
2020-Feb-18 15:05 054 7 gusting 11 12.8
2020-Feb-18 15:00 052 6 gusting 13 12.8
2020-Feb-18 14:55 057 7 gusting 13 12.8
2020-Feb-18 14:50 051 8 gusting 12 12.8
2020-Feb-18 14:45 054 7 gusting 13 12.8
2020-Feb-18 14:35 062 7 gusting 13 12.8
2020-Feb-18 14:30 068 8 gusting 14 12.8
2020-Feb-18 14:25 062 8 gusting 14 12.8
2020-Feb-18 14:20 062 7 gusting 13 12.8
2020-Feb-18 14:15 049 9 gusting 13 12.8
2020-Feb-18 14:10 071 7 gusting 12 12.8
2020-Feb-18 14:05 076 8 gusting 13 12.8
2020-Feb-18 14:00 070 7 gusting 13 13.3
2020-Feb-18 13:55 074 10 gusting 14 13.3
2020-Feb-18 13:50 065 10 gusting 17 13.9
2020-Feb-18 13:45 053 10 gusting 16 13.9
2020-Feb-18 13:40 057 11 gusting 17 13.9
2020-Feb-18 13:35 054 13 gusting 19 13.9
2020-Feb-18 13:30 057 8 gusting 13 13.9
2020-Feb-18 13:25 054 8 gusting 13 13.9
2020-Feb-18 13:20 057 7 gusting 12 13.9
2020-Feb-18 13:15 057 9 gusting 14 13.9
2020-Feb-18 13:10 055 7 gusting 14 13.9
2020-Feb-18 13:05 052 8 gusting 13 13.9
2020-Feb-18 13:00 055 7 gusting 13 13.9
2020-Feb-18 12:55 052 8 gusting 17 13.9
2020-Feb-18 12:50 053 7 gusting 13 13.9
2020-Feb-18 12:45 052 6 gusting 11 13.9
2020-Feb-18 12:40 054 6 gusting 8 13.9
2020-Feb-18 12:35 053 7 gusting 13 13.9
2020-Feb-18 12:30 058 7 gusting 12 13.9
2020-Feb-18 12:25 057 6 gusting 11 13.9
2020-Feb-18 12:20 058 10 gusting 16 13.9
2020-Feb-18 12:15 052 8 gusting 13 13.9
2020-Feb-18 12:10 054 10 gusting 15 13.9
2020-Feb-18 12:05 058 9 gusting 13 13.9
2020-Feb-18 12:00 062 8 gusting 14 13.9
2020-Feb-18 11:55 053 7 gusting 15 13.9
2020-Feb-18 11:50 051 11 gusting 17 13.9
2020-Feb-18 11:45 058 10 gusting 16 13.9
2020-Feb-18 11:40 057 8 gusting 16 13.9
2020-Feb-18 11:35 062 7 gusting 15 13.9
2020-Feb-18 11:30 055 7 gusting 13 13.9
2020-Feb-18 11:25 060 5 gusting 8 13.9
2020-Feb-18 11:20 041 6 gusting 9 13.9
2020-Feb-18 11:15 046 4 gusting 7 13.9
2020-Feb-18 11:10 043 4 gusting 8 13.9
2020-Feb-18 11:05 051 5 gusting 8 13.9
2020-Feb-18 11:00 043 3 gusting 7 13.9
2020-Feb-18 10:50 008 4 gusting 7 13.9
2020-Feb-18 10:45 359 3 gusting 6 13.9
2020-Feb-18 10:40 359 4 gusting 7 13.9
2020-Feb-18 10:35 004 3 gusting 6 13.9
2020-Feb-18 10:30 001 3 gusting 6 13.3
2020-Feb-18 10:25 005 5 gusting 8 13.3
2020-Feb-18 10:20 005 5 gusting 8 13.3
2020-Feb-18 10:15 005 4 gusting 7 13.3
2020-Feb-18 10:10 13.3
2020-Feb-18 10:05 018 3 gusting 7 13.3
2020-Feb-18 10:00 004 5 gusting 8 13.3
2020-Feb-18 09:50 009 3 gusting 7 13.3
2020-Feb-18 09:45 356 2 gusting 7 13.3
2020-Feb-18 09:35 349 3 gusting 6 13.3
2020-Feb-18 09:30 347 2 gusting 6 13.3
2020-Feb-18 09:25 345 3 gusting 6 13.3
2020-Feb-18 09:20 346 2 gusting 4 13.3
2020-Feb-18 09:15 353 4 gusting 6 13.3
2020-Feb-18 09:10 358 4 gusting 6 13.3
2020-Feb-18 09:05 349 3 gusting 6 13.3
2020-Feb-18 09:00 007 3 gusting 6 12.8
2020-Feb-18 08:55 023 2 gusting 5 12.8
2020-Feb-18 08:50 039 4 gusting 8 12.8
2020-Feb-18 08:45 041 4 gusting 8 13.3
2020-Feb-18 08:40 017 3 gusting 7 13.3
2020-Feb-18 08:35 044 3 gusting 7 13.3
2020-Feb-18 08:30 037 6 gusting 10 13.3
2020-Feb-18 08:25 040 6 gusting 10 13.3
2020-Feb-18 08:20 037 5 gusting 9 13.3
2020-Feb-18 08:15 039 4 gusting 9 13.3
2020-Feb-18 08:10 047 4 gusting 7 13.3
2020-Feb-18 08:05 043 4 gusting 7 13.3
2020-Feb-18 08:00 053 4 gusting 7 13.3
2020-Feb-18 07:55 050 4 gusting 8 13.3
2020-Feb-18 07:50 058 3 gusting 7 13.3
2020-Feb-18 07:45 058 2 gusting 5 13.9
2020-Feb-18 07:40 024 1 gusting 3 13.3
2020-Feb-18 07:35 327 1 gusting 3 13.3
2020-Feb-18 07:30 311 1 gusting 3 13.3
2020-Feb-18 07:25 345 1 gusting 2 13.3
2020-Feb-18 07:20 346 0 gusting 2 13.3
2020-Feb-18 07:15 345 0 gusting 2 13.3
2020-Feb-18 07:10 353 1 gusting 3 13.3
2020-Feb-18 07:05 025 1 gusting 3 13.3
2020-Feb-18 07:00 054 0 gusting 2 13.3
2020-Feb-18 06:55 057 1 gusting 3 13.3
2020-Feb-18 06:50 058 2 gusting 5 13.3
2020-Feb-18 06:45 027 1 gusting 4 13.3
2020-Feb-18 06:40 014 1 gusting 3 13.3
2020-Feb-18 06:35 027 2 gusting 4 13.3
2020-Feb-18 06:30 041 2 gusting 4 13.3
2020-Feb-18 06:25 061 2 gusting 4 13.3
2020-Feb-18 06:20 051 3 gusting 7 13.3
2020-Feb-18 06:15 051 3 gusting 6 13.3
2020-Feb-18 06:10 037 2 gusting 5 13.3
2020-Feb-18 06:05 033 1 gusting 5 13.3
2020-Feb-18 06:00 038 1 gusting 3 13.3
2020-Feb-18 05:55 048 2 gusting 4 13.3
2020-Feb-18 05:50 048 0 gusting 2 13.3
2020-Feb-18 05:45 046 1 gusting 3 13.3
2020-Feb-18 05:40 052 2 gusting 5 13.3
2020-Feb-18 05:35 031 1 gusting 3 13.3
2020-Feb-18 05:30 022 2 gusting 6 13.3
2020-Feb-18 05:25 005 1 gusting 3 13.3
2020-Feb-18 05:20 005 0 gusting 1 13.3
2020-Feb-18 05:15 026 2 gusting 4 13.3
2020-Feb-18 05:10 054 2 gusting 5 13.3
2020-Feb-18 05:05 055 4 gusting 6 13.3
2020-Feb-18 05:00 068 2 gusting 6 13.3
2020-Feb-18 04:55 079 4 gusting 6 13.3
2020-Feb-18 04:50 064 3 gusting 8 13.3
2020-Feb-18 04:45 065 1 gusting 3 13.3
2020-Feb-18 04:40 073 4 gusting 7 13.3
2020-Feb-18 04:35 061 1 gusting 3 13.3
2020-Feb-18 04:30 297 0 gusting 2 13.3
2020-Feb-18 04:25 297 0 gusting 1 13.3
2020-Feb-18 04:20 297 1 gusting 2 13.3
2020-Feb-18 04:15 296 1 gusting 2 13.3
2020-Feb-18 04:10 294 2 gusting 3 13.3
2020-Feb-18 04:05 280 2 gusting 3 13.3
2020-Feb-18 04:00 266 1 gusting 2 13.3
2020-Feb-18 03:50 268 2 gusting 3 13.3
2020-Feb-18 03:45 282 2 gusting 4 13.3
2020-Feb-18 03:40 275 4 gusting 6 13.3
2020-Feb-18 03:35 265 3 gusting 5 13.3
2020-Feb-18 03:30 273 4 gusting 6 13.3
2020-Feb-18 03:25 285 3 gusting 5 13.3
2020-Feb-18 03:20 303 2 gusting 4 13.3
2020-Feb-18 03:15 307 2 gusting 3 13.3
2020-Feb-18 03:10 297 1 gusting 3 13.3
2020-Feb-18 03:05 297 0 gusting 2 13.3
2020-Feb-18 03:00 297 0 gusting 2 13.3
2020-Feb-18 02:55 297 1 gusting 2 13.3
2020-Feb-18 02:50 297 1 gusting 2 13.3
2020-Feb-18 02:45 297 0 gusting 2 13.3
2020-Feb-18 02:40 044 0 gusting 2 13.3
2020-Feb-18 02:30 343 0 gusting 3 13.3
2020-Feb-18 02:25 059 2 gusting 4 13.3
2020-Feb-18 02:20 073 2 gusting 4 13.9
2020-Feb-18 02:15 082 3 gusting 5 13.9
2020-Feb-18 02:10 079 3 gusting 6 13.9
2020-Feb-18 02:05 073 3 gusting 6 13.9
2020-Feb-18 02:00 079 5 gusting 8 13.9
2020-Feb-18 01:55 078 6 gusting 12 13.9
2020-Feb-18 01:50 076 10 gusting 13 13.9
2020-Feb-18 01:45 077 6 gusting 15 13.9
2020-Feb-18 01:40 054 6 gusting 13 13.9
2020-Feb-18 01:35 051 6 gusting 11 13.9
2020-Feb-18 01:30 058 6 gusting 12 13.9
2020-Feb-18 01:25 054 6 gusting 10 13.3
2020-Feb-18 01:20 055 6 gusting 9 13.3
2020-Feb-18 01:15 046 6 gusting 11 13.3
2020-Feb-18 01:10 041 5 gusting 8 13.3
2020-Feb-18 01:05 042 5 gusting 8 13.3
2020-Feb-18 01:00 036 4 gusting 7 13.3
2020-Feb-18 00:50 038 6 gusting 10 12.8
2020-Feb-18 00:45 038 7 gusting 12 12.8
2020-Feb-18 00:40 036 8 gusting 12 12.8
2020-Feb-18 00:35 038 7 gusting 11 12.2
2020-Feb-18 00:25 057 6 gusting 8 12.2
2020-Feb-18 00:20 047 5 gusting 8 12.8
2020-Feb-18 00:15 055 6 gusting 11 12.8
2020-Feb-18 00:10 045 5 gusting 9 13.3
2020-Feb-18 00:05 050 5 gusting 8 13.3
2020-Feb-18 00:00 045 6 gusting 10 13.3
2020-Feb-17 23:55 040 5 gusting 8 13.9
2020-Feb-17 23:50 037 6 gusting 10 13.9
2020-Feb-17 23:45 040 6 gusting 9 13.9
2020-Feb-17 23:40 038 6 gusting 9 13.9
2020-Feb-17 23:35 039 5 gusting 10 14.4
2020-Feb-17 23:30 040 4 gusting 8 14.4
2020-Feb-17 23:25 049 3 gusting 7 15.0
2020-Feb-17 23:20 060 3 gusting 6 15.0
2020-Feb-17 23:15 065 4 gusting 6 15.0
2020-Feb-17 23:10 056 4 gusting 7 15.0
2020-Feb-17 23:05 045 4 gusting 6 15.0
2020-Feb-17 23:00 045 4 gusting 6 15.0
2020-Feb-17 22:55 045 4 gusting 8 15.0
2020-Feb-17 22:50 037 4 gusting 7 15.6
2020-Feb-17 22:45 044 3 gusting 7 16.1
2020-Feb-17 22:40 053 2 gusting 6 16.7
2020-Feb-17 22:35 053 6 gusting 9 17.2
2020-Feb-17 22:30 012 5 gusting 10 17.2
2020-Feb-17 22:25 322 7 gusting 12 17.2
2020-Feb-17 22:20 326 6 gusting 12 17.8
2020-Feb-17 22:10 303 7 gusting 13 17.8
2020-Feb-17 22:05 299 9 gusting 16 17.8
2020-Feb-17 22:00 297 10 gusting 16 17.8
2020-Feb-17 21:55 297 11 gusting 21 17.8
2020-Feb-17 21:50 286 11 gusting 19 17.8
2020-Feb-17 21:45 292 8 gusting 16 17.8
2020-Feb-17 21:35 292 8 gusting 13 17.8
2020-Feb-17 21:30 288 10 gusting 19 17.8
2020-Feb-17 21:25 284 11 gusting 22 17.8
2020-Feb-17 21:20 284 12 gusting 19 17.8
2020-Feb-17 21:15 274 13 gusting 25 17.8
2020-Feb-17 21:10 284 13 gusting 19 18.3
2020-Feb-17 21:05 279 11 gusting 19 18.3
2020-Feb-17 21:00 292 11 gusting 17 18.3
2020-Feb-17 20:55 288 13 gusting 23 18.3
2020-Feb-17 20:50 293 13 gusting 22 18.3
2020-Feb-17 20:45 290 8 gusting 18 18.3
2020-Feb-17 20:40 283 11 gusting 18 18.9
2020-Feb-17 20:35 287 13 gusting 20 18.9
2020-Feb-17 20:30 289 13 gusting 21 18.9
2020-Feb-17 20:25 286 11 gusting 18 18.9
2020-Feb-17 20:20 280 10 gusting 16 18.9
2020-Feb-17 20:15 280 7 gusting 12 18.9
2020-Feb-17 20:10 278 6 gusting 11 18.9
2020-Feb-17 20:05 310 3 gusting 8 18.9
2020-Feb-17 20:00 323 2 gusting 9 18.9
2020-Feb-17 19:55 311 3 gusting 8 18.9
2020-Feb-17 19:50 277 3 gusting 8 18.9
2020-Feb-17 19:45 265 5 gusting 10 18.9
2020-Feb-17 19:40 274 4 gusting 9 18.9
2020-Feb-17 19:35 262 5 gusting 8 18.9
2020-Feb-17 19:30 266 6 gusting 11 18.9
2020-Feb-17 19:25 272 7 gusting 12 18.9
2020-Feb-17 19:20 270 8 gusting 13 18.9
2020-Feb-17 19:15 272 7 gusting 15 18.3
2020-Feb-17 19:10 277 7 gusting 13 18.3
2020-Feb-17 19:05 285 6 gusting 11 17.8
2020-Feb-17 19:00 284 4 gusting 6 17.8
2020-Feb-17 18:55 300 3 gusting 6 17.8
2020-Feb-17 18:50 274 5 gusting 7 17.8
2020-Feb-17 18:45 263 7 gusting 10 17.2
2020-Feb-17 18:40 259 6 gusting 8 16.7
2020-Feb-17 18:35 260 7 gusting 9 16.7
2020-Feb-17 18:30 267 6 gusting 7 16.7
2020-Feb-17 18:20 274 5 gusting 7 16.7
2020-Feb-17 18:15 266 3 gusting 6 16.7
2020-Feb-17 18:10 250 1 gusting 3 16.7
2020-Feb-17 18:05 275 0 gusting 2 16.7
2020-Feb-17 18:00 048 0 gusting 1 16.7
2020-Feb-17 17:55 042 2 gusting 4 16.7
2020-Feb-17 17:50 048 0 gusting 2 16.7
2020-Feb-17 17:45 048 16.7
2020-Feb-17 17:40 050 16.7
2020-Feb-17 17:35 053 1 gusting 3 16.7
2020-Feb-17 17:30 069 2 gusting 4 16.7
2020-Feb-17 17:25 062 1 gusting 3 16.7
2020-Feb-17 17:20 049 1 gusting 3 16.7
2020-Feb-17 17:15 078 2 gusting 4 16.7
2020-Feb-17 17:10 078 5 gusting 7 17.2
2020-Feb-17 17:05 080 2 gusting 4 17.2
2020-Feb-17 17:00 077 2 gusting 3 17.2
2020-Feb-17 16:55 078 4 gusting 6 17.2
2020-Feb-17 16:50 083 4 gusting 7 17.2
2020-Feb-17 16:45 081 5 gusting 8 16.7
2020-Feb-17 16:40 080 6 gusting 7 17.2
2020-Feb-17 16:35 077 6 gusting 8 17.2
2020-Feb-17 16:30 076 6 gusting 9 17.2
2020-Feb-17 16:25 078 6 gusting 9 17.2
2020-Feb-17 16:20 080 7 gusting 9 17.2
2020-Feb-17 16:12 075 6 gusting 9 17.8
2020-Feb-17 16:05 081 7 gusting 10 17.8
2020-Feb-17 16:00 079 8 gusting 11 17.8
2020-Feb-17 15:55 088 6 gusting 9 17.8
2020-Feb-17 15:50 082 8 gusting 11 18.3
2020-Feb-17 15:45 076 6 gusting 10 18.3
2020-Feb-17 15:40 083 9 gusting 13 18.3
2020-Feb-17 15:35 080 8 gusting 12 18.3
2020-Feb-17 15:30 081 9 gusting 11 18.9
2020-Feb-17 15:25 081 7 gusting 10 18.9
2020-Feb-17 15:20 076 6 gusting 9 18.9
2020-Feb-17 15:15 080 6 gusting 10 18.9
2020-Feb-17 15:10 079 6 gusting 9 18.9
2020-Feb-17 15:05 082 5 gusting 8 18.9
2020-Feb-17 15:00 084 6 gusting 9 18.9
2020-Feb-17 14:55 086 6 gusting 9 18.9
2020-Feb-17 14:50 084 7 gusting 10 18.9
2020-Feb-17 14:45 086 6 gusting 9 18.9
2020-Feb-17 14:40 080 6 gusting 9 18.9
2020-Feb-17 14:35 087 6 gusting 10 18.9
2020-Feb-17 14:30 080 6 gusting 9 18.9
2020-Feb-17 14:25 086 9 gusting 13 19.4
2020-Feb-17 14:20 080 8 gusting 12 20.0
2020-Feb-17 14:15 092 6 gusting 10 20.0
2020-Feb-17 14:10 083 9 gusting 13 20.0
2020-Feb-17 14:05 087 7 gusting 11 20.6
2020-Feb-17 14:00 085 7 gusting 10 20.6
2020-Feb-17 13:55 091 6 gusting 9 21.1
2020-Feb-17 13:50 086 6 gusting 10 21.7
2020-Feb-17 13:45 098 4 gusting 9 23.3
2020-Feb-17 13:40 216 3 gusting 7 23.3
2020-Feb-17 13:35 210 2 gusting 6 22.8
2020-Feb-17 13:30 220 3 gusting 8 22.8
2020-Feb-17 13:25 168 2 gusting 6 22.8
2020-Feb-17 13:20 221 4 gusting 8 22.2
2020-Feb-17 13:15 223 4 gusting 8 21.7
2020-Feb-17 13:10 164 5 gusting 8 21.7
2020-Feb-17 13:05 200 3 gusting 6 21.1
2020-Feb-17 13:00 196 6 gusting 10 21.1
2020-Feb-17 12:55 197 6 gusting 10 21.1
2020-Feb-17 12:50 209 7 gusting 10 21.1
2020-Feb-17 12:45 201 6 gusting 10 20.6
2020-Feb-17 12:40 199 6 gusting 9 21.1
2020-Feb-17 12:35 213 5 gusting 7 20.6
2020-Feb-17 12:30 213 6 gusting 8 20.6
2020-Feb-17 12:25 207 7 gusting 10 20.6
2020-Feb-17 12:20 206 4 gusting 7 20.0
2020-Feb-17 12:15 209 6 gusting 10 20.0
2020-Feb-17 12:10 215 3 gusting 7 20.0
2020-Feb-17 12:05 220 5 gusting 8 19.4
2020-Feb-17 12:00 210 7 gusting 9 19.4
2020-Feb-17 11:55 220 7 gusting 11 18.9
2020-Feb-17 11:50 202 7 gusting 11 18.9
2020-Feb-17 11:45 193 5 gusting 8 18.9
2020-Feb-17 11:40 202 4 gusting 8 18.9
2020-Feb-17 11:35 192 5 gusting 7 18.3
2020-Feb-17 11:30 195 6 gusting 8 18.9
2020-Feb-17 11:25 209 4 gusting 7 18.3
2020-Feb-17 11:20 210 4 gusting 7 18.3
2020-Feb-17 11:15 213 6 gusting 9 17.8
2020-Feb-17 11:10 215 6 gusting 10 17.8
2020-Feb-17 11:05 222 7 gusting 10 17.2
2020-Feb-17 11:00 211 7 gusting 11 17.2
2020-Feb-17 10:55 199 8 gusting 11 17.2
2020-Feb-17 10:50 220 7 gusting 11 17.2
2020-Feb-17 10:45 207 9 gusting 13 17.2
2020-Feb-17 10:40 218 7 gusting 12 17.2
2020-Feb-17 10:35 220 7 gusting 11 17.2
2020-Feb-17 10:30 223 6 gusting 9 16.7
2020-Feb-17 10:25 225 6 gusting 9 16.1
2020-Feb-17 10:20 208 4 gusting 6 16.1
2020-Feb-17 10:15 209 3 gusting 6 15.6
2020-Feb-17 10:10 218 5 gusting 8 15.6
2020-Feb-17 10:05 202 6 gusting 9 15.0
2020-Feb-17 10:00 203 3 gusting 6 15.0
2020-Feb-17 09:55 204 4 gusting 7 14.4
2020-Feb-17 09:50 204 3 gusting 6 14.4
2020-Feb-17 09:45 208 5 gusting 7 13.9
2020-Feb-17 09:40 202 5 gusting 6 13.3
2020-Feb-17 09:35 209 4 gusting 6 12.8
2020-Feb-17 09:30 208 3 gusting 5 12.8
2020-Feb-17 09:25 210 3 gusting 5 12.2
2020-Feb-17 09:20 207 4 gusting 6 11.7
2020-Feb-17 09:15 215 5 gusting 7 11.7
2020-Feb-17 09:10 215 4 gusting 6 11.1
2020-Feb-17 09:05 212 5 gusting 7 11.1
2020-Feb-17 09:00 206 6 gusting 8 10.6
2020-Feb-17 08:55 208 5 gusting 7 10.6
2020-Feb-17 08:50 212 6 gusting 8 10.6
2020-Feb-17 08:45 215 4 gusting 6 10.6
2020-Feb-17 08:40 193 1 gusting 6 10.6
2020-Feb-17 08:35 192 1 gusting 4 10.6
2020-Feb-17 08:30 193 0 gusting 1 10.6
2020-Feb-17 08:25 193 0 gusting 1 10.0
2020-Feb-17 08:20 193 1 gusting 3 10.0
2020-Feb-17 08:15 193 3 gusting 4 10.0
2020-Feb-17 08:10 193 3 gusting 5 10.0
2020-Feb-17 08:05 195 3 gusting 5 10.0
2020-Feb-17 08:00 180 3 gusting 6 10.0
2020-Feb-17 07:55 176 2 gusting 5 10.0
2020-Feb-17 07:50 179 1 gusting 3 9.4
2020-Feb-17 07:45 170 2 gusting 3 9.4
2020-Feb-17 07:40 165 2 gusting 4 8.9
2020-Feb-17 07:35 160 1 gusting 3 8.9
2020-Feb-17 07:30 160 1 gusting 3 8.9
2020-Feb-17 07:25 162 1 gusting 3 8.9
2020-Feb-17 07:20 189 1 gusting 4 8.9
2020-Feb-17 07:15 191 0 gusting 3 8.9
2020-Feb-17 07:10 191 1 gusting 3 8.9
2020-Feb-17 07:05 191 1 gusting 3 8.9
2020-Feb-17 07:00 182 1 gusting 3 8.9
2020-Feb-17 06:55 149 1 gusting 3 8.9
2020-Feb-17 06:50 141 0 gusting 1 9.4
2020-Feb-17 06:45 141 0 gusting 1 9.4
2020-Feb-17 06:40 141 0 gusting 1 9.4
2020-Feb-17 06:35 141 9.4
2020-Feb-17 06:30 141 9.4
2020-Feb-17 06:25 140 0 gusting 1 9.4
2020-Feb-17 06:20 139 0 gusting 0 8.9
2020-Feb-17 06:15 139 0 gusting 1 9.4
2020-Feb-17 06:10 139 0 gusting 1 9.4
2020-Feb-17 06:05 139 9.4
2020-Feb-17 06:00 139 0 gusting 1 9.4
2020-Feb-17 05:55 139 0 gusting 1 9.4
2020-Feb-17 05:50 9.4
2020-Feb-17 05:45 139 9.4
2020-Feb-17 05:40 139 8.9
2020-Feb-17 05:35 139 8.9
2020-Feb-17 05:30 140 0 gusting 1 8.9
2020-Feb-17 05:25 144 0 gusting 1 8.9
2020-Feb-17 05:20 144 0 gusting 1 8.9
2020-Feb-17 05:15 144 0 gusting 1 9.4
2020-Feb-17 05:10 144 0 gusting 1 9.4
2020-Feb-17 05:05 159 1 gusting 3 9.4
2020-Feb-17 05:00 174 0 gusting 1 10.0
2020-Feb-17 04:55 174 10.0
2020-Feb-17 04:50 189 1 gusting 3 10.0
2020-Feb-17 04:45 219 0 gusting 1 10.0
2020-Feb-17 04:40 219 1 gusting 2 10.0
2020-Feb-17 04:35 223 2 gusting 3 9.4
2020-Feb-17 04:30 244 2 gusting 3 10.0
2020-Feb-17 04:25 261 1 gusting 2 10.0
2020-Feb-17 04:20 264 0 gusting 1 10.0
2020-Feb-17 04:15 261 0 gusting 2 10.0
2020-Feb-17 04:10 243 0 gusting 1 10.6
2020-Feb-17 04:05 243 0 gusting 2 10.0
2020-Feb-17 04:00 245 1 gusting 2 10.0
2020-Feb-17 03:55 246 0 gusting 2 10.0
2020-Feb-17 03:50 246 0 gusting 1 10.0
2020-Feb-17 03:45 243 1 gusting 2 10.0
2020-Feb-17 03:40 221 1 gusting 2 10.0
2020-Feb-17 03:35 220 0 gusting 2 10.0
2020-Feb-17 03:30 220 0 gusting 1 10.0
2020-Feb-17 03:25 220 1 gusting 2 10.0
2020-Feb-17 03:20 220 1 gusting 3 10.0
2020-Feb-17 03:15 246 1 gusting 3 10.0
2020-Feb-17 03:10 243 1 gusting 2 10.0
2020-Feb-17 03:05 242 1 gusting 2 10.0
2020-Feb-17 03:00 250 2 gusting 3 10.0
2020-Feb-17 02:55 264 1 gusting 2 10.0
2020-Feb-17 02:50 270 0 gusting 1 10.0
2020-Feb-17 02:45 270 9.4
2020-Feb-17 02:40 270 10.0
2020-Feb-17 02:35 270 10.0
2020-Feb-17 02:30 270 0 gusting 2 10.0
2020-Feb-17 02:25 270 0 gusting 2 10.6
2020-Feb-17 02:20 270 10.6
2020-Feb-17 02:15 270 10.6
2020-Feb-17 02:10 270 10.6
2020-Feb-17 02:05 270 0 gusting 1 10.6
2020-Feb-17 02:00 270 1 gusting 3 10.6
2020-Feb-17 01:55 262 2 gusting 3 11.1
2020-Feb-17 01:50 233 1 gusting 2 11.1
2020-Feb-17 01:45 233 1 gusting 2 11.1
2020-Feb-17 01:40 233 1 gusting 2 11.1
2020-Feb-17 01:35 233 0 gusting 1 11.1
2020-Feb-17 01:30 233 0 gusting 1 11.1
2020-Feb-17 01:25 233 11.7
2020-Feb-17 01:20 233 0 gusting 1 11.7
2020-Feb-17 01:15 233 1 gusting 2 11.7
2020-Feb-17 01:10 233 11.7
2020-Feb-17 01:05 233 1 gusting 2 11.7
2020-Feb-17 01:00 233 1 gusting 2 11.7
2020-Feb-17 00:55 233 1 gusting 2 11.7
2020-Feb-17 00:50 233 1 gusting 2 11.7
2020-Feb-17 00:45 233 2 gusting 4 11.7
2020-Feb-17 00:40 232 2 gusting 3 11.7
2020-Feb-17 00:35 229 3 gusting 5 11.7
2020-Feb-17 00:30 235 4 gusting 6 11.7
2020-Feb-17 00:25 243 4 gusting 6 11.7
2020-Feb-17 00:20 239 5 gusting 7 11.7
2020-Feb-17 00:15 239 5 gusting 8 11.7
2020-Feb-17 00:10 234 6 gusting 7 11.7
2020-Feb-17 00:05 237 5 gusting 6 11.7
2020-Feb-17 00:00 240 3 gusting 6 11.7